New Lisbon, Indiana
Current Conditions -  °F | °C
As of 11:53 AM on Friday 19 Dec 2014 (Local Time) from KMIE Reporting Station
Overcast Overcast  
Wind Chill: 28°   Ceiling: 2600
Heat Index: 28°   Visibility: 7mi
Dew Point: 22°   Wind: 3mph
Humidity: 78%   Direction: 260°W
Pressure: 30.28"   Gusts: NA
Location:  39.86°N, 85.26°W
Report Text: KMIE 191653Z 26003KT 7SM OVC026 M02/M06 A3028 RMK AO2 SLP264 T10221056
Loading
Personal Weather Stations






























Interactive Weather Map New forecast layout! Learn more

10-Day Weather Forecast

Advertisements
Track Severe Weather on mobile